Time;durP1;ratioP1;P1;durP2;ratioP2;P2;SDS_P1;SDS_P2;PMS_P1;PMS_P2;Temp;Humidity;BMP_temperature;BMP_pressure;BME280_temperature;BME280_humidity;BME280_pressure;Samples;Min_cycle;Max_cycle;Signal;HPM_P1;HPM_P2
2024/01/03 00:00:21;;;;;;;20.27;11.67;;;;;;;;;;4370204;32;321624;-80
2024/01/03 00:02:49;;;;;;;17.37;12.23;;;;;;;;;;4371310;32;318154;-81
2024/01/03 00:05:23;;;;;;;21.13;13.10;;;;;;;;;;4388069;32;318489;-79
2024/01/03 00:07:54;;;;;;;24.27;16.47;;;;;;;;;;4376606;32;318613;-80
2024/01/03 00:10:42;;;;;;;34.97;19.83;;;;;;;;;;4378398;32;318354;-79
2024/01/03 00:13:47;;;;;;;51.77;28.00;;;;;;;;;;4364678;32;418570;-79
2024/01/03 00:16:21;;;;;;;42.07;25.03;;;;;;;;;;4369386;32;418272;-79
2024/01/03 00:18:50;;;;;;;58.37;27.47;;;;;;;;;;4372185;32;318038;-79
2024/01/03 00:21:23;;;;;;;36.90;21.97;;;;;;;;;;4382617;32;317656;-80
2024/01/03 00:23:52;;;;;;;38.47;21.40;;;;;;;;;;4371534;32;318499;-80
2024/01/03 00:26:20;;;;;;;37.77;21.40;;;;;;;;;;4391479;32;356225;-79
2024/01/03 00:28:51;;;;;;;42.63;20.40;;;;;;;;;;4376618;32;318352;-79
2024/01/03 00:31:40;;;;;;;38.07;22.83;;;;;;;;;;4379447;32;317457;-80
2024/01/03 00:34:31;;;;;;;33.70;18.37;;;;;;;;;;4382790;32;418458;-80
2024/01/03 00:36:58;;;;;;;36.40;20.00;;;;;;;;;;4383171;32;418679;-79
2024/01/03 00:39:27;;;;;;;36.17;21.17;;;;;;;;;;4385354;32;318322;-79
2024/01/03 00:41:57;;;;;;;44.43;22.43;;;;;;;;;;4376516;32;417072;-79
2024/01/03 00:44:25;;;;;;;43.53;23.73;;;;;;;;;;4394634;32;318106;-79
2024/01/03 00:46:56;;;;;;;46.47;24.17;;;;;;;;;;4355252;32;417824;-80
2024/01/03 00:49:24;;;;;;;41.60;24.13;;;;;;;;;;4386118;32;317673;-79
2024/01/03 00:51:52;;;;;;;42.30;23.43;;;;;;;;;;4340089;32;417981;-79
2024/01/03 00:54:21;;;;;;;42.43;23.57;;;;;;;;;;4381465;32;318314;-79
2024/01/03 00:56:52;;;;;;;37.23;20.40;;;;;;;;;;4370644;32;318174;-79
2024/01/03 00:59:23;;;;;;;37.47;19.30;;;;;;;;;;4383772;32;318357;-79
2024/01/03 01:01:53;;;;;;;30.53;16.83;;;;;;;;;;4365921;32;418554;-80
2024/01/03 01:04:20;;;;;;;27.33;13.57;;;;;;;;;;4389917;32;318253;-79
2024/01/03 01:06:46;;;;;;;29.10;14.77;;;;;;;;;;4370377;32;318135;-80
2024/01/03 01:09:13;;;;;;;26.13;14.77;;;;;;;;;;4386300;32;318165;-79
2024/01/03 01:11:41;;;;;;;28.73;16.20;;;;;;;;;;4363005;32;317532;-79
2024/01/03 01:14:08;;;;;;;31.43;16.60;;;;;;;;;;4393044;32;318106;-79
2024/01/03 01:16:36;;;;;;;30.03;15.47;;;;;;;;;;4375975;32;318415;-79
2024/01/03 01:19:08;;;;;;;27.77;15.47;;;;;;;;;;4394136;32;318149;-79
2024/01/03 01:21:36;;;;;;;32.97;15.33;;;;;;;;;;4381831;32;318291;-79
2024/01/03 01:24:04;;;;;;;35.20;14.93;;;;;;;;;;4396233;32;318219;-79
2024/01/03 01:26:36;;;;;;;35.83;17.70;;;;;;;;;;4384444;32;318326;-80
2024/01/03 01:29:02;;;;;;;43.33;21.93;;;;;;;;;;4398390;32;318219;-80
2024/01/03 01:31:32;;;;;;;36.87;19.97;;;;;;;;;;4382990;32;318291;-79
2024/01/03 01:33:59;;;;;;;30.90;17.40;;;;;;;;;;4392043;32;316354;-79
2024/01/03 01:36:27;;;;;;;31.43;17.00;;;;;;;;;;4388966;32;316816;-79
2024/01/03 01:38:56;;;;;;;36.57;18.77;;;;;;;;;;4398103;32;316917;-78
2024/01/03 01:41:24;;;;;;;35.97;16.00;;;;;;;;;;4382801;32;317637;-80
2024/01/03 01:43:51;;;;;;;39.23;15.70;;;;;;;;;;4361637;32;418778;-79
2024/01/03 01:46:20;;;;;;;35.83;16.60;;;;;;;;;;4384168;32;318302;-79
2024/01/03 01:48:47;;;;;;;35.93;17.03;;;;;;;;;;4383656;32;318181;-79
2024/01/03 01:51:18;;;;;;;31.13;15.80;;;;;;;;;;4394330;32;317428;-80
2024/01/03 01:53:47;;;;;;;41.23;17.20;;;;;;;;;;4376330;32;318190;-79
2024/01/03 01:56:15;;;;;;;30.77;15.07;;;;;;;;;;4395056;32;316757;-79
2024/01/03 01:58:42;;;;;;;30.73;15.17;;;;;;;;;;4386693;32;318087;-81
2024/01/03 02:01:12;;;;;;;30.30;15.47;;;;;;;;;;4394973;32;317718;-81
2024/01/03 02:03:40;;;;;;;23.53;13.90;;;;;;;;;;4368168;32;318339;-81
2024/01/03 02:06:08;;;;;;;26.80;13.03;;;;;;;;;;4376365;32;318272;-80
2024/01/03 02:08:36;;;;;;;22.00;13.83;;;;;;;;;;4369995;32;318305;-80
2024/01/03 02:11:06;;;;;;;22.67;11.90;;;;;;;;;;4415767;32;317535;-80
2024/01/03 02:13:36;;;;;;;24.20;13.63;;;;;;;;;;4416445;32;317914;-79
2024/01/03 02:16:07;;;;;;;18.63;11.87;;;;;;;;;;4421293;32;316956;-79
2024/01/03 02:18:34;;;;;;;21.73;11.43;;;;;;;;;;4400605;32;317992;-80
2024/01/03 02:21:02;;;;;;;20.43;11.83;;;;;;;;;;4409686;32;316265;-80
2024/01/03 02:23:32;;;;;;;18.60;11.53;;;;;;;;;;4399054;32;318135;-79
2024/01/03 02:26:01;;;;;;;19.60;11.87;;;;;;;;;;4400428;32;318231;-79
2024/01/03 02:28:28;;;;;;;19.57;12.17;;;;;;;;;;4385061;32;318100;-79
2024/01/03 02:30:55;;;;;;;23.80;13.00;;;;;;;;;;4388837;32;317979;-80
2024/01/03 02:33:22;;;;;;;22.43;13.40;;;;;;;;;;4378136;32;318081;-79
2024/01/03 02:35:49;;;;;;;29.60;15.00;;;;;;;;;;4359995;32;318260;-80
2024/01/03 02:38:15;;;;;;;24.03;11.83;;;;;;;;;;4377308;32;318103;-79
2024/01/03 02:40:47;;;;;;;20.27;11.73;;;;;;;;;;4379182;32;318519;-79
2024/01/03 02:43:16;;;;;;;20.00;10.83;;;;;;;;;;4393664;32;317914;-81
2024/01/03 02:45:42;;;;;;;17.60;10.63;;;;;;;;;;4376401;32;317297;-79
2024/01/03 02:48:11;;;;;;;21.33;10.97;;;;;;;;;;4392246;32;316838;-80
2024/01/03 02:50:44;;;;;;;20.80;10.47;;;;;;;;;;4379464;32;317501;-80
2024/01/03 02:53:11;;;;;;;18.47;11.13;;;;;;;;;;4393456;32;318329;-79
2024/01/03 02:55:38;;;;;;;20.27;12.17;;;;;;;;;;4376423;32;317999;-79
2024/01/03 02:58:09;;;;;;;16.23;11.93;;;;;;;;;;4389218;32;316470;-79
2024/01/03 03:00:39;;;;;;;16.80;11.40;;;;;;;;;;4383300;32;317637;-79
2024/01/03 03:03:08;;;;;;;17.97;10.67;;;;;;;;;;4390768;32;318634;-79
2024/01/03 03:05:39;;;;;;;23.60;12.83;;;;;;;;;;4376904;32;345823;-80
2024/01/03 03:08:06;;;;;;;18.30;11.40;;;;;;;;;;4393079;32;318077;-80
2024/01/03 03:10:34;;;;;;;15.37;10.83;;;;;;;;;;4371741;32;328255;-80
2024/01/03 03:13:02;;;;;;;18.13;12.27;;;;;;;;;;4391721;32;317285;-80
2024/01/03 03:15:31;;;;;;;16.57;9.63;;;;;;;;;;4373421;32;317507;-79
2024/01/03 03:17:58;;;;;;;14.73;9.33;;;;;;;;;;4387512;32;316614;-79
2024/01/03 03:20:25;;;;;;;14.17;9.13;;;;;;;;;;4386088;32;316161;-79
2024/01/03 03:22:54;;;;;;;11.53;8.80;;;;;;;;;;4382434;32;416077;-79
2024/01/03 03:25:20;;;;;;;13.00;8.67;;;;;;;;;;4395228;32;316698;-81
2024/01/03 03:27:47;;;;;;;14.43;9.93;;;;;;;;;;4366032;32;317377;-79
2024/01/03 03:30:17;;;;;;;16.13;9.87;;;;;;;;;;4378543;32;316219;-79
2024/01/03 03:32:51;;;;;;;11.93;9.10;;;;;;;;;;4370075;32;317230;-79
2024/01/03 03:35:19;;;;;;;16.10;10.23;;;;;;;;;;4380643;32;317495;-80
2024/01/03 03:37:48;;;;;;;15.77;9.90;;;;;;;;;;4364687;32;318042;-79
2024/01/03 03:40:15;;;;;;;14.87;9.97;;;;;;;;;;4386616;32;326448;-79
2024/01/03 03:42:46;;;;;;;14.13;9.33;;;;;;;;;;4384574;32;317470;-79
2024/01/03 03:45:13;;;;;;;12.80;9.03;;;;;;;;;;4389783;32;316556;-79
2024/01/03 03:47:41;;;;;;;15.23;10.30;;;;;;;;;;4379297;32;317291;-81
2024/01/03 03:50:12;;;;;;;14.03;9.53;;;;;;;;;;4391354;32;318709;-80
2024/01/03 03:52:40;;;;;;;15.90;10.40;;;;;;;;;;4372963;32;317191;-80
2024/01/03 03:55:14;;;;;;;26.17;13.93;;;;;;;;;;4393577;32;317333;-80
2024/01/03 03:57:41;;;;;;;23.60;13.93;;;;;;;;;;4367247;32;317279;-79
2024/01/03 04:00:11;;;;;;;33.40;18.13;;;;;;;;;;4383017;32;317205;-79
2024/01/03 04:02:39;;;;;;;45.57;19.30;;;;;;;;;;4350141;32;316815;-80
2024/01/03 04:05:08;;;;;;;40.30;19.17;;;;;;;;;;4379419;32;318184;-81
2024/01/03 04:07:39;;;;;;;39.50;20.60;;;;;;;;;;4365714;32;317831;-80
2024/01/03 04:10:10;;;;;;;36.67;18.93;;;;;;;;;;4395041;32;317473;-80
2024/01/03 04:12:38;;;;;;;38.33;19.47;;;;;;;;;;4378316;32;318538;-79
2024/01/03 04:15:06;;;;;;;29.57;16.73;;;;;;;;;;4387192;32;316680;-80
2024/01/03 04:17:36;;;;;;;30.07;14.63;;;;;;;;;;4373573;32;318502;-78
2024/01/03 04:20:03;;;;;;;25.40;15.00;;;;;;;;;;4392618;32;317709;-80
2024/01/03 04:22:31;;;;;;;31.67;17.07;;;;;;;;;;4385263;32;318712;-80
2024/01/03 04:25:00;;;;;;;35.77;18.47;;;;;;;;;;4378882;32;317977;-80
2024/01/03 04:27:27;;;;;;;42.23;20.80;;;;;;;;;;4369532;32;318093;-81
2024/01/03 04:29:54;;;;;;;31.77;17.17;;;;;;;;;;4363656;32;317538;-81
2024/01/03 04:32:21;;;;;;;30.90;15.50;;;;;;;;;;4376816;32;317985;-80
2024/01/03 04:34:48;;;;;;;28.77;14.07;;;;;;;;;;4369452;32;318367;-81
2024/01/03 04:37:15;;;;;;;24.00;14.47;;;;;;;;;;4379538;32;318402;-81
2024/01/03 04:39:42;;;;;;;26.07;12.93;;;;;;;;;;4374925;32;318061;-81
2024/01/03 04:42:12;;;;;;;15.33;11.33;;;;;;;;;;4389641;32;356587;-81
2024/01/03 04:44:44;;;;;;;18.20;11.80;;;;;;;;;;4382917;32;318985;-80
2024/01/03 04:47:12;;;;;;;21.40;12.87;;;;;;;;;;4398393;32;317817;-81
2024/01/03 04:49:39;;;;;;;24.23;13.43;;;;;;;;;;4376969;32;317485;-81
2024/01/03 04:52:11;;;;;;;29.50;14.83;;;;;;;;;;4386605;32;318222;-80
2024/01/03 04:54:38;;;;;;;24.43;13.27;;;;;;;;;;4381492;32;318167;-80
2024/01/03 04:57:05;;;;;;;34.43;16.33;;;;;;;;;;4393815;32;317792;-80
2024/01/03 04:59:35;;;;;;;27.27;14.83;;;;;;;;;;4382244;32;318100;-80
2024/01/03 05:02:02;;;;;;;25.13;14.00;;;;;;;;;;4387936;32;317494;-81
2024/01/03 05:04:31;;;;;;;23.83;14.13;;;;;;;;;;4383807;32;318299;-81
2024/01/03 05:07:02;;;;;;;20.33;13.07;;;;;;;;;;4392878;32;317983;-81
2024/01/03 05:09:34;;;;;;;25.30;13.63;;;;;;;;;;4384715;32;318148;-80
2024/01/03 05:12:02;;;;;;;11.77;8.27;;;;;;;;;;4393012;32;317924;-81
2024/01/03 05:14:30;;;;;;;11.70;7.40;;;;;;;;;;4368449;32;316755;-80
2024/01/03 05:16:58;;;;;;;20.13;11.83;;;;;;;;;;4371654;32;316746;-80
2024/01/03 05:19:29;;;;;;;28.37;14.27;;;;;;;;;;4380887;32;318591;-80
2024/01/03 05:21:58;;;;;;;31.30;15.57;;;;;;;;;;4370018;32;417804;-79
2024/01/03 05:24:27;;;;;;;29.03;16.40;;;;;;;;;;4394355;32;316689;-80
2024/01/03 05:26:54;;;;;;;21.00;12.70;;;;;;;;;;4382165;32;417619;-80
2024/01/03 05:29:22;;;;;;;16.40;10.67;;;;;;;;;;4393105;32;317894;-79
2024/01/03 05:31:49;;;;;;;20.17;11.80;;;;;;;;;;4369745;32;316948;-80
2024/01/03 05:34:20;;;;;;;17.43;12.00;;;;;;;;;;4383998;32;318268;-79
2024/01/03 05:36:48;;;;;;;19.97;11.10;;;;;;;;;;4392991;32;318787;-80
2024/01/03 05:39:16;;;;;;;20.00;10.90;;;;;;;;;;4382474;32;318459;-80
2024/01/03 05:41:45;;;;;;;23.57;13.40;;;;;;;;;;4371065;32;319151;-80
2024/01/03 05:44:13;;;;;;;30.60;14.97;;;;;;;;;;4392196;32;339324;-81
2024/01/03 05:46:40;;;;;;;35.90;20.43;;;;;;;;;;4381617;32;417282;-80
2024/01/03 05:49:08;;;;;;;43.47;25.53;;;;;;;;;;4389983;32;318377;-81
2024/01/03 05:51:39;;;;;;;34.67;21.67;;;;;;;;;;4376216;32;318745;-79
2024/01/03 05:54:08;;;;;;;26.23;17.93;;;;;;;;;;4390410;32;318857;-81
2024/01/03 05:56:38;;;;;;;24.83;18.30;;;;;;;;;;4384369;32;318840;-80
2024/01/03 05:59:07;;;;;;;30.80;18.33;;;;;;;;;;4394656;32;318277;-81
2024/01/03 06:01:36;;;;;;;24.77;16.27;;;;;;;;;;4376602;32;318722;-80
2024/01/03 06:04:03;;;;;;;36.37;16.60;;;;;;;;;;4391454;32;318604;-80
2024/01/03 06:06:30;;;;;;;27.97;17.37;;;;;;;;;;4382741;32;318740;-81
2024/01/03 06:09:01;;;;;;;39.60;18.93;;;;;;;;;;4391766;32;317528;-80
2024/01/03 06:11:27;;;;;;;33.27;18.27;;;;;;;;;;4376523;32;318649;-79
2024/01/03 06:13:55;;;;;;;26.83;18.03;;;;;;;;;;4377078;32;318361;-80
2024/01/03 06:16:23;;;;;;;39.13;21.03;;;;;;;;;;4368115;32;318817;-79
2024/01/03 06:18:53;;;;;;;34.37;20.23;;;;;;;;;;4379912;32;318271;-79
2024/01/03 06:21:22;;;;;;;37.77;22.17;;;;;;;;;;4366338;32;318374;-79
2024/01/03 06:23:52;;;;;;;43.83;22.57;;;;;;;;;;4382011;32;318238;-82
2024/01/03 06:26:29;;;;;;;40.47;20.70;;;;;;;;;;4383779;32;317754;-81
2024/01/03 06:28:58;;;;;;;36.73;20.03;;;;;;;;;;4394749;32;341463;-80
2024/01/03 06:31:25;;;;;;;35.53;19.70;;;;;;;;;;4383661;32;318803;-82
2024/01/03 06:33:52;;;;;;;33.50;20.37;;;;;;;;;;4385077;32;318080;-80
2024/01/03 06:36:18;;;;;;;41.13;21.70;;;;;;;;;;4384170;32;318744;-80
2024/01/03 06:38:45;;;;;;;45.83;22.63;;;;;;;;;;4393780;32;318464;-80
2024/01/03 06:41:13;;;;;;;40.60;23.97;;;;;;;;;;4392238;32;318371;-79
2024/01/03 06:43:48;;;;;;;42.00;25.30;;;;;;;;;;4370675;32;418085;-81
2024/01/03 06:46:17;;;;;;;54.60;24.43;;;;;;;;;;4383881;32;318693;-80
2024/01/03 06:48:45;;;;;;;39.83;23.77;;;;;;;;;;4392022;32;318364;-79
2024/01/03 06:51:20;;;;;;;44.33;24.13;;;;;;;;;;4387814;32;318341;-79
2024/01/03 06:53:47;;;;;;;37.50;21.60;;;;;;;;;;4361155;32;415682;-80
2024/01/03 06:56:17;;;;;;;31.43;19.20;;;;;;;;;;4372912;32;377060;-79
2024/01/03 06:58:47;;;;;;;37.23;21.70;;;;;;;;;;4382148;32;318709;-80
2024/01/03 07:01:14;;;;;;;42.53;21.37;;;;;;;;;;4377794;32;318423;-79
2024/01/03 07:03:40;;;;;;;46.03;24.90;;;;;;;;;;4373515;32;318170;-79
2024/01/03 07:06:07;;;;;;;39.80;24.33;;;;;;;;;;4389592;32;318322;-81
2024/01/03 07:08:35;;;;;;;40.77;23.97;;;;;;;;;;4384038;32;318575;-80
2024/01/03 07:11:03;;;;;;;42.20;23.13;;;;;;;;;;4385275;32;318196;-81
2024/01/03 07:13:33;;;;;;;45.97;25.53;;;;;;;;;;4378662;32;318546;-80
2024/01/03 07:16:01;;;;;;;50.87;25.90;;;;;;;;;;4397448;32;318683;-80
2024/01/03 07:18:28;;;;;;;46.80;26.27;;;;;;;;;;4363102;32;318371;-81
2024/01/03 07:20:56;;;;;;;42.63;25.73;;;;;;;;;;4392771;32;318342;-80
2024/01/03 07:23:26;;;;;;;45.97;25.53;;;;;;;;;;4370352;32;318609;-80
2024/01/03 07:25:53;;;;;;;55.97;29.03;;;;;;;;;;4391924;32;317470;-80
2024/01/03 07:28:23;;;;;;;58.47;32.83;;;;;;;;;;4384375;32;318350;-80
2024/01/03 07:30:52;;;;;;;71.20;36.70;;;;;;;;;;4386978;32;318675;-80
2024/01/03 07:33:20;;;;;;;65.17;33.40;;;;;;;;;;4385487;32;319211;-81
2024/01/03 07:35:47;;;;;;;66.37;34.63;;;;;;;;;;4388514;32;318636;-81
2024/01/03 07:38:14;;;;;;;76.37;42.50;;;;;;;;;;4385519;32;318691;-79
2024/01/03 07:40:42;;;;;;;71.60;39.40;;;;;;;;;;4393744;32;318087;-80
2024/01/03 07:43:09;;;;;;;79.43;47.27;;;;;;;;;;4396958;32;318361;-81
2024/01/03 07:45:47;;;;;;;55.87;32.50;;;;;;;;;;4377607;32;339274;-80
2024/01/03 07:48:14;;;;;;;67.00;37.77;;;;;;;;;;4392531;32;318748;-81
2024/01/03 07:50:42;;;;;;;67.77;37.10;;;;;;;;;;4382353;32;317873;-80
2024/01/03 07:53:13;;;;;;;80.17;40.70;;;;;;;;;;4406269;32;318350;-80
2024/01/03 07:55:41;;;;;;;73.80;41.33;;;;;;;;;;4368524;32;420165;-81
2024/01/03 07:58:08;;;;;;;79.23;44.50;;;;;;;;;;4397753;32;318401;-80
2024/01/03 08:00:35;;;;;;;88.43;54.23;;;;;;;;;;4376839;32;318006;-81
2024/01/03 08:03:04;;;;;;;71.60;41.87;;;;;;;;;;4394756;32;318036;-82
2024/01/03 08:05:31;;;;;;;69.47;37.03;;;;;;;;;;4370208;32;318687;-80
2024/01/03 08:07:59;;;;;;;63.33;34.93;;;;;;;;;;4397963;32;318323;-81
2024/01/03 08:10:26;;;;;;;65.07;34.63;;;;;;;;;;4387193;32;318538;-79
2024/01/03 08:12:54;;;;;;;77.80;42.77;;;;;;;;;;4399415;32;317843;-80
2024/01/03 08:15:26;;;;;;;70.27;41.07;;;;;;;;;;4397965;32;318752;-81
2024/01/03 08:17:54;;;;;;;83.67;47.10;;;;;;;;;;4411851;32;318075;-80
2024/01/03 08:20:22;;;;;;;85.53;50.03;;;;;;;;;;4409131;32;316840;-81
2024/01/03 08:22:53;;;;;;;84.30;51.40;;;;;;;;;;4412797;32;317993;-79
2024/01/03 08:25:25;;;;;;;94.57;56.53;;;;;;;;;;4377509;32;317648;-79
2024/01/03 08:27:52;;;;;;;101.23;52.70;;;;;;;;;;4393207;32;318222;-80
2024/01/03 08:30:20;;;;;;;69.07;41.13;;;;;;;;;;4375403;32;363298;-80
2024/01/03 08:32:50;;;;;;;49.23;31.40;;;;;;;;;;4382205;32;318439;-79
2024/01/03 08:35:17;;;;;;;55.13;36.00;;;;;;;;;;4392267;32;318890;-80
2024/01/03 08:37:43;;;;;;;56.23;36.53;;;;;;;;;;4373521;32;317989;-79
2024/01/03 08:40:11;;;;;;;43.40;26.80;;;;;;;;;;4396068;32;318956;-80
2024/01/03 08:42:40;;;;;;;54.23;30.80;;;;;;;;;;4385799;32;318529;-79
2024/01/03 08:45:10;;;;;;;35.73;22.93;;;;;;;;;;4398055;32;318709;-80
2024/01/03 08:47:38;;;;;;;34.33;23.93;;;;;;;;;;4379024;32;318421;-79
2024/01/03 08:50:05;;;;;;;42.07;24.97;;;;;;;;;;4395799;32;319180;-80
2024/01/03 08:52:32;;;;;;;66.37;42.00;;;;;;;;;;4384780;32;318308;-80
2024/01/03 08:54:59;;;;;;;61.47;36.67;;;;;;;;;;4402116;32;342375;-80
2024/01/03 08:57:27;;;;;;;57.93;36.47;;;;;;;;;;4391299;32;318303;-80
2024/01/03 08:59:55;;;;;;;144.53;77.20;;;;;;;;;;4400074;32;318686;-78
2024/01/03 09:02:23;;;;;;;59.07;37.27;;;;;;;;;;4399128;32;319532;-81
2024/01/03 09:04:50;;;;;;;60.83;37.00;;;;;;;;;;4409981;32;318770;-80
2024/01/03 09:07:20;;;;;;;61.27;39.47;;;;;;;;;;4399955;32;323893;-80
2024/01/03 09:09:46;;;;;;;54.50;35.33;;;;;;;;;;4373220;32;319086;-81
2024/01/03 09:12:15;;;;;;;98.37;55.13;;;;;;;;;;4402423;32;317935;-77
2024/01/03 09:14:43;;;;;;;145.20;74.33;;;;;;;;;;4356673;32;419424;-79
2024/01/03 09:17:12;;;;;;;67.03;40.67;;;;;;;;;;4375503;32;318509;-77
2024/01/03 09:19:42;;;;;;;68.13;41.97;;;;;;;;;;4374317;32;417870;-77
2024/01/03 09:22:09;;;;;;;76.03;43.57;;;;;;;;;;4395326;32;318603;-78
2024/01/03 09:24:35;;;;;;;81.93;44.20;;;;;;;;;;4382893;32;319410;-79
2024/01/03 09:27:04;;;;;;;71.07;47.77;;;;;;;;;;4382039;32;318339;-79
2024/01/03 09:29:31;;;;;;;74.40;47.97;;;;;;;;;;4366612;32;318609;-79
2024/01/03 09:31:58;;;;;;;71.30;43.43;;;;;;;;;;4385291;32;318101;-79
2024/01/03 09:34:28;;;;;;;61.40;38.80;;;;;;;;;;4371085;32;318528;-78
2024/01/03 09:36:58;;;;;;;59.90;38.23;;;;;;;;;;4376813;32;318206;-79
2024/01/03 09:39:28;;;;;;;66.30;38.60;;;;;;;;;;4377195;32;319052;-78
2024/01/03 09:41:55;;;;;;;64.37;37.07;;;;;;;;;;4378268;32;318099;-80
2024/01/03 09:44:22;;;;;;;74.87;41.67;;;;;;;;;;4371001;32;318213;-78
2024/01/03 09:46:50;;;;;;;54.20;36.27;;;;;;;;;;4380956;32;318651;-78
2024/01/03 09:49:20;;;;;;;57.87;37.57;;;;;;;;;;4372862;32;320017;-79
2024/01/03 09:51:53;;;;;;;54.37;35.33;;;;;;;;;;4376350;32;318411;-78
2024/01/03 09:54:21;;;;;;;52.40;35.80;;;;;;;;;;4378112;32;318307;-79
2024/01/03 09:56:48;;;;;;;60.77;38.83;;;;;;;;;;4386198;32;318454;-81
2024/01/03 09:59:17;;;;;;;68.87;40.60;;;;;;;;;;4377787;32;318202;-80
2024/01/03 10:01:54;;;;;;;76.40;46.73;;;;;;;;;;4384359;32;318537;-80
2024/01/03 10:04:23;;;;;;;65.90;42.30;;;;;;;;;;4375931;32;318307;-80
2024/01/03 10:06:57;;;;;;;72.63;47.37;;;;;;;;;;4385794;32;317704;-81
2024/01/03 10:09:25;;;;;;;63.50;41.03;;;;;;;;;;4372202;32;318390;-81
2024/01/03 10:11:53;;;;;;;76.23;52.20;;;;;;;;;;4387399;32;322587;-81
2024/01/03 10:14:25;;;;;;;68.00;44.07;;;;;;;;;;4378666;32;319423;-80
2024/01/03 10:16:51;;;;;;;98.93;53.60;;;;;;;;;;4379368;32;318181;-81
2024/01/03 10:19:20;;;;;;;88.27;49.03;;;;;;;;;;4377330;32;318424;-80
2024/01/03 10:21:49;;;;;;;124.57;72.63;;;;;;;;;;4373935;32;333504;-78
2024/01/03 10:24:18;;;;;;;111.30;66.73;;;;;;;;;;4379024;32;320782;-79
2024/01/03 10:26:46;;;;;;;94.33;57.80;;;;;;;;;;4389382;32;319254;-79
2024/01/03 10:29:14;;;;;;;92.23;57.13;;;;;;;;;;4391947;32;318366;-79
2024/01/03 10:31:41;;;;;;;94.40;53.67;;;;;;;;;;4374242;32;318077;-81
2024/01/03 10:34:15;;;;;;;83.90;55.50;;;;;;;;;;4397407;32;317768;-80
2024/01/03 10:36:44;;;;;;;110.83;68.53;;;;;;;;;;4380904;32;389945;-81
2024/01/03 10:39:18;;;;;;;94.17;59.53;;;;;;;;;;4396141;32;319193;-80
2024/01/03 10:41:53;;;;;;;107.43;65.67;;;;;;;;;;4365193;32;417138;-79
2024/01/03 10:44:24;;;;;;;84.53;55.23;;;;;;;;;;4382028;32;319395;-79
2024/01/03 10:46:54;;;;;;;73.70;48.93;;;;;;;;;;4394115;32;318374;-78
2024/01/03 10:49:22;;;;;;;72.73;47.07;;;;;;;;;;4362470;32;317959;-79
2024/01/03 10:51:57;;;;;;;70.20;44.17;;;;;;;;;;4386890;32;356344;-80
2024/01/03 10:54:27;;;;;;;64.80;44.43;;;;;;;;;;4388523;32;318058;-78
2024/01/03 10:56:54;;;;;;;103.90;63.00;;;;;;;;;;4397463;32;317792;-79
2024/01/03 10:59:28;;;;;;;92.47;55.87;;;;;;;;;;4383489;32;319010;-79
2024/01/03 11:01:59;;;;;;;57.73;38.63;;;;;;;;;;4393638;32;318276;-79
2024/01/03 11:04:36;;;;;;;55.87;37.87;;;;;;;;;;4385968;32;318205;-77
2024/01/03 11:07:09;;;;;;;53.20;39.00;;;;;;;;;;4394625;32;342976;-79
2024/01/03 11:09:37;;;;;;;51.67;34.83;;;;;;;;;;4380602;32;318072;-78
2024/01/03 11:12:11;;;;;;;58.83;37.53;;;;;;;;;;4395135;32;318159;-79
2024/01/03 11:14:43;;;;;;;68.10;41.00;;;;;;;;;;4381761;32;318787;-78
2024/01/03 11:17:13;;;;;;;67.77;42.60;;;;;;;;;;4392561;32;319223;-79
2024/01/03 11:19:40;;;;;;;70.53;46.80;;;;;;;;;;4364722;32;417939;-78
2024/01/03 11:22:08;;;;;;;105.37;57.00;;;;;;;;;;4394234;32;318518;-77
2024/01/03 11:24:52;;;;;;;84.60;53.10;;;;;;;;;;4382304;32;319096;-77
2024/01/03 11:27:24;;;;;;;83.90;53.60;;;;;;;;;;4382533;32;318855;-78
2024/01/03 11:29:53;;;;;;;54.43;29.27;;;;;;;;;;4385056;32;318219;-83
2024/01/03 11:32:29;;;;;;;67.60;47.07;;;;;;;;;;4383193;32;318493;-82
2024/01/03 11:34:58;;;;;;;89.73;56.93;;;;;;;;;;4396130;32;318324;-80
2024/01/03 11:37:40;;;;;;;63.80;32.23;;;;;;;;;;4381974;32;318803;-82
2024/01/03 11:40:08;;;;;;;68.63;38.17;;;;;;;;;;4387573;32;317998;-81
2024/01/03 11:42:39;;;;;;;70.27;47.27;;;;;;;;;;4384208;32;318436;-79
2024/01/03 11:45:11;;;;;;;61.77;39.83;;;;;;;;;;4391996;32;319889;-79
2024/01/03 11:47:42;;;;;;;52.10;36.33;;;;;;;;;;4376480;32;318041;-80
2024/01/03 11:50:12;;;;;;;47.43;31.63;;;;;;;;;;4392566;32;318464;-81
2024/01/03 11:52:40;;;;;;;48.67;32.20;;;;;;;;;;4376773;32;419484;-78
2024/01/03 11:55:11;;;;;;;48.87;32.57;;;;;;;;;;4390077;32;318410;-79
2024/01/03 11:57:42;;;;;;;42.93;32.57;;;;;;;;;;4375460;32;318278;-79
2024/01/03 12:00:11;;;;;;;49.37;32.50;;;;;;;;;;4393671;32;317630;-80
2024/01/03 12:02:49;;;;;;;59.53;39.63;;;;;;;;;;4379241;32;333770;-79
2024/01/03 12:05:15;;;;;;;94.83;61.40;;;;;;;;;;4382683;32;318366;-78
2024/01/03 12:07:42;;;;;;;48.37;32.40;;;;;;;;;;4387632;32;318189;-79
2024/01/03 12:10:11;;;;;;;74.70;45.70;;;;;;;;;;4393704;32;318019;-79
2024/01/03 12:12:43;;;;;;;107.43;62.43;;;;;;;;;;4376478;32;317530;-80
2024/01/03 12:15:27;;;;;;;50.53;35.03;;;;;;;;;;4393822;32;318463;-79
2024/01/03 12:17:54;;;;;;;65.53;39.37;;;;;;;;;;4379214;32;418909;-79
2024/01/03 12:20:22;;;;;;;50.37;34.97;;;;;;;;;;4381971;32;318316;-79
2024/01/03 12:22:50;;;;;;;51.50;34.10;;;;;;;;;;4395239;32;318569;-79
2024/01/03 12:25:18;;;;;;;49.80;32.93;;;;;;;;;;4382946;32;318135;-80
2024/01/03 12:27:46;;;;;;;52.87;34.37;;;;;;;;;;4386865;32;318183;-78
2024/01/03 12:30:15;;;;;;;44.27;31.47;;;;;;;;;;4396433;32;317522;-80
2024/01/03 12:32:42;;;;;;;47.57;31.00;;;;;;;;;;4369541;32;417203;-79
2024/01/03 12:35:12;;;;;;;146.67;79.70;;;;;;;;;;4381972;32;318850;-79
2024/01/03 12:37:44;;;;;;;142.67;98.50;;;;;;;;;;4366404;32;319388;-79
2024/01/03 12:40:15;;;;;;;84.33;53.07;;;;;;;;;;4382736;32;319210;-79
2024/01/03 12:42:42;;;;;;;69.77;42.77;;;;;;;;;;4376713;32;417582;-79
2024/01/03 12:45:13;;;;;;;86.10;54.80;;;;;;;;;;4396888;32;318127;-79
2024/01/03 12:47:40;;;;;;;80.63;52.83;;;;;;;;;;4380247;32;318115;-79
2024/01/03 12:50:08;;;;;;;72.13;47.03;;;;;;;;;;4395117;32;318006;-80
2024/01/03 12:52:37;;;;;;;59.90;41.30;;;;;;;;;;4388110;32;318220;-79
2024/01/03 12:55:05;;;;;;;65.03;40.93;;;;;;;;;;4396258;32;328537;-80
2024/01/03 12:57:34;;;;;;;55.57;38.47;;;;;;;;;;4378229;32;319994;-79
2024/01/03 13:00:01;;;;;;;69.13;40.33;;;;;;;;;;4396030;32;318125;-80
2024/01/03 13:02:31;;;;;;;59.63;39.87;;;;;;;;;;4382298;32;317495;-78
2024/01/03 13:04:57;;;;;;;66.63;42.73;;;;;;;;;;4394532;32;318320;-80
2024/01/03 13:07:24;;;;;;;74.80;44.83;;;;;;;;;;4372001;32;318152;-78
2024/01/03 13:09:51;;;;;;;73.97;48.23;;;;;;;;;;4381382;32;318127;-79
2024/01/03 13:12:20;;;;;;;86.33;54.77;;;;;;;;;;4382801;32;318341;-78
2024/01/03 13:14:48;;;;;;;81.97;53.47;;;;;;;;;;4392300;32;318739;-78
2024/01/03 13:17:17;;;;;;;81.87;51.00;;;;;;;;;;4397038;32;318494;-79
2024/01/03 13:19:46;;;;;;;89.77;56.83;;;;;;;;;;4405303;32;318101;-79
2024/01/03 13:22:17;;;;;;;92.00;61.03;;;;;;;;;;4410081;32;345979;-80
2024/01/03 13:24:46;;;;;;;79.30;52.97;;;;;;;;;;4397898;32;418460;-79
2024/01/03 13:27:14;;;;;;;72.57;41.47;;;;;;;;;;4408392;32;318185;-80
2024/01/03 13:29:41;;;;;;;93.80;54.97;;;;;;;;;;4367467;32;417505;-78
2024/01/03 13:32:09;;;;;;;96.43;53.87;;;;;;;;;;4396487;32;318121;-78
2024/01/03 13:34:38;;;;;;;43.77;28.13;;;;;;;;;;4384038;32;319051;-78
2024/01/03 13:37:08;;;;;;;54.37;34.23;;;;;;;;;;4394344;32;318111;-79
2024/01/03 13:39:35;;;;;;;51.07;33.80;;;;;;;;;;4364560;32;318095;-79
2024/01/03 13:42:03;;;;;;;61.63;35.27;;;;;;;;;;4380759;32;345368;-79
2024/01/03 13:44:30;;;;;;;64.97;39.83;;;;;;;;;;4383863;32;318412;-78
2024/01/03 13:46:58;;;;;;;510.20;224.30;;;;;;;;;;4394827;32;318003;-79
2024/01/03 13:49:24;;;;;;;137.80;68.07;;;;;;;;;;4383731;32;320087;-79
2024/01/03 13:51:53;;;;;;;58.03;35.67;;;;;;;;;;4389838;32;318475;-80
2024/01/03 13:54:22;;;;;;;55.60;35.23;;;;;;;;;;4391311;32;318352;-79
2024/01/03 13:56:51;;;;;;;85.17;55.43;;;;;;;;;;4394488;32;318133;-78
2024/01/03 13:59:17;;;;;;;56.57;35.23;;;;;;;;;;4384375;32;318310;-79
2024/01/03 14:01:45;;;;;;;64.93;40.50;;;;;;;;;;4386231;32;318280;-80
2024/01/03 14:04:14;;;;;;;95.60;51.50;;;;;;;;;;4397099;32;318415;-79
2024/01/03 14:06:42;;;;;;;85.97;45.40;;;;;;;;;;4391756;32;418700;-78
2024/01/03 14:09:10;;;;;;;67.93;39.43;;;;;;;;;;4406221;32;316921;-78
2024/01/03 14:11:38;;;;;;;69.33;39.37;;;;;;;;;;4390600;32;317742;-78
2024/01/03 14:14:05;;;;;;;67.33;36.43;;;;;;;;;;4403913;32;317898;-79